FW8987 Weather Reports


Display with metric or nautical units.
time (UTC)temp
F
wind
direction
speed
MPH
gust
MPH
rain 1hr
in
rain 24hr
in
rain mn
in
humidity
%
barometer
mb
20220705162544 70 251 6.0 11.0 0.00 0.06 0.00 43 1008.8
20220705161544 69 244 5.0 11.0 0.00 0.06 0.00 44 1008.7
20220705160545 70 255 4.0 7.0 0.00 0.06 0.00 47 1008.8
20220705155545 69 243 3.0 7.0 0.00 0.06 0.00 50 1008.8
20220705154529 67 235 3.0 6.0 0.00 0.06 0.00 53 1008.8
20220705153546 67 253 5.0 9.0 0.00 0.06 0.00 52 1008.8
20220705152546 67 244 4.0 8.0 0.00 0.06 0.00 52 1008.6
20220705151546 67 242 5.0 10.0 0.00 0.06 0.00 51 1008.6
20220705150533 70 243 7.0 13.0 0.00 0.06 0.00 47 1008.5
20220705145532 69 234 4.0 11.0 0.00 0.06 0.00 48 1008.5
20220705144533 69 213 5.0 9.0 0.00 0.06 0.00 49 1008.5
20220705143548 69 229 3.0 9.0 0.00 0.06 0.00 49 1008.6
20220705142516 70 236 4.0 10.0 0.00 0.06 0.00 50 1008.6
20220705141517 70 244 5.0 13.0 0.00 0.06 0.00 48 1008.6
20220705140519 70 218 6.0 14.0 0.00 0.06 0.00 47 1008.6
20220705135519 69 245 6.0 13.0 0.00 0.06 0.00 46 1008.4
20220705134534 70 205 4.0 11.0 0.00 0.06 0.00 51 1008.3
20220705133523 69 215 5.0 13.0 0.00 0.06 0.00 51 1008.2
20220705132519 69 208 4.0 16.0 0.00 0.06 0.00 51 1008.4
20220705131521 69 253 6.0 11.0 0.00 0.06 0.00 51 1008.3
20220705130548 69 234 4.0 9.0 0.00 0.06 0.00 51 1008.4
20220705125534 69 228 4.0 11.0 0.00 0.06 0.00 53 1008.2
20220705124533 68 245 7.0 13.0 0.00 0.06 0.00 53 1008.3
20220705123533 68 240 4.0 8.0 0.00 0.06 0.00 55 1008.3
20220705122519 68 235 7.0 14.0 0.00 0.06 0.00 55 1008.4
20220705121518 68 223 5.0 10.0 0.00 0.06 0.00 58 1008.4
20220705120519 66 191 3.0 8.0 0.00 0.06 0.00 63 1008.4
20220705115535 64 208 2.0 6.0 0.00 0.06 0.00 67 1008.4
20220705114535 61 224 3.0 7.0 0.00 0.06 0.00 71 1008.5
20220705113519 62 226 4.0 10.0 0.00 0.06 0.00 70 1008.5
20220705112521 67 218 5.0 14.0 0.00 0.06 0.00 54 1008.2
20220705111538 67 223 5.0 10.0 0.00 0.06 0.00 54 1008.2
20220705110538 67 229 4.0 14.0 0.00 0.06 0.00 56 1008.3
20220705105539 66 223 3.0 8.0 0.00 0.06 0.00 58 1008.3
20220705104538 65 216 4.0 8.0 0.00 0.06 0.00 59 1008.3
20220705103524 65 241 4.0 9.0 0.00 0.06 0.00 60 1008.3
20220705102523 65 254 5.0 8.0 0.00 0.06 0.00 59 1008.5
20220705101525 63 239 5.0 10.0 0.00 0.06 0.00 62 1008.4
20220705100536 64 246 6.0 11.0 0.00 0.06 0.00 61 1008.5
20220705095536 64 220 5.0 11.0 0.00 0.06 0.00 61 1008.5
20220705094521 64 252 6.0 11.0 0.00 0.06 0.00 61 1008.4
20220705093520 65 209 5.0 14.0 0.00 0.06 0.00 61 1008.3
20220705092521 64 210 2.0 8.0 0.00 0.06 0.00 63 1008.2
20220705091537 63 236 4.0 10.0 0.00 0.06 0.00 63 1008.2
20220705090539 64 212 4.0 11.0 0.00 0.06 0.00 65 1008.1
20220705085539 63 241 4.0 9.0 0.00 0.06 0.00 66 1008.3
20220705084539 62 227 4.0 9.0 0.00 0.06 0.00 67 1008.2
20220705083541 62 233 4.0 9.0 0.00 0.06 0.00 67 1008.1
20220705082545 61 228 4.0 9.0 0.00 0.06 0.00 67 1008.0
20220705081541 61 235 3.0 7.0 0.00 0.06 0.00 72 1008.1
20220705080541 61 221 3.0 7.0 0.00 0.06 0.00 73 1008.1
20220705075541 60 238 3.0 10.0 0.00 0.06 0.00 74 1008.1
20220705074541 60 225 4.0 10.0 0.00 0.06 0.00 74 1008.2
20220705073542 60 232 4.0 13.0 0.00 0.06 0.00 74 1008.1
20220705072543 60 222 4.0 10.0 0.00 0.06 0.00 74 1008.1
20220705071542 59 219 2.0 8.0 0.00 0.06 0.00 75 1008.2
20220705070543 59 221 3.0 8.0 0.00 0.06 0.00 77 1008.2
20220705065543 58 234 3.0 8.0 0.00 0.06 0.00 78 1008.1
20220705064543 58 232 4.0 11.0 0.00 0.06 0.00 78 1008.2
20220705063528 59 201 2.0 8.0 0.00 0.06 0.00 76 1008.0
20220705062529 60 199 4.0 10.0 0.00 0.06 0.00 73 1008.0
20220705061546 59 225 5.0 14.0 0.00 0.06 0.00 74 1007.9
20220705060530 59 207 4.0 11.0 0.00 0.06 0.00 73 1007.9
20220705055546 59 227 5.0 10.0 0.00 0.06 0.00 74 1008.1
20220705054546 58 230 5.0 10.0 0.00 0.06 0.00 77 1008.0
20220705053531 58 229 3.0 9.0 0.00 0.06 0.00 77 1008.1
20220705052531 58 224 3.0 8.0 0.00 0.06 0.00 78 1008.0
20220705051532 58 227 3.0 8.0 0.00 0.06 0.00 78 1008.0
20220705050532 59 194 2.0 8.0 0.00 0.06 0.00 77 1008.0
20220705045532 58 232 3.0 6.0 0.00 0.06 0.00 78 1008.1
20220705044533 58 213 3.0 6.0 0.00 0.06 0.00 79 1008.1
20220705043533 58 208 2.0 6.0 0.00 0.06 0.00 80 1008.3
20220705042533 58 232 3.0 7.0 0.00 0.06 0.00 81 1008.2
20220705041536 57 197 1.0 5.0 0.00 0.06 0.00 82 1008.2
20220705040535 57 211 2.0 6.0 0.00 0.06 0.00 83 1008.2
20220705035535 56 226 2.0 6.0 0.00 0.06 0.00 84 1008.3
20220705034536 56 231 1.0 5.0 0.00 0.06 0.00 85 1008.2
20220705033536 55 205 1.0 3.0 0.00 0.06 0.00 86 1008.3
20220705032536 55 225 1.0 3.0 0.00 0.06 0.00 85 1008.3
20220705031536 55 196 0.0 1.0 0.00 0.06 0.00 86 1008.2
20220705030538 56 216 1.0 5.0 0.00 0.06 0.00 85 1008.2
20220705025553 56 222 2.0 7.0 0.00 0.06 0.00 86 1008.3
20220705024538 56 204 2.0 5.0 0.00 0.06 0.00 86 1008.3
20220705023538 56 225 1.0 5.0 0.00 0.06 0.00 86 1008.2
20220705022539 56 207 1.0 5.0 0.00 0.06 0.00 86 1008.3
20220705021539 56 205 1.0 3.0 0.00 0.06 0.00 86 1008.3
20220705020541 56 203 1.0 5.0 0.00 0.06 0.00 86 1008.2
20220705015540 56 203 1.0 5.0 0.00 0.06 0.00 85 1008.3
20220705014541 56 210 1.0 3.0 0.00 0.06 0.00 85 1008.4
20220705013541 56 217 1.0 2.0 0.00 0.06 0.00 85 1008.3
20220705012557 57 210 0.0 3.0 0.00 0.06 0.00 84 1008.4
20220705011557 57 234 0.0 1.0 0.00 0.06 0.00 84 1008.4
20220705010558 57 203 0.0 1.0 0.00 0.06 0.00 84 1008.4
20220705005601 57 228 1.0 5.0 0.00 0.06 0.00 84 1008.5
20220705004545 57 177 0.0 2.0 0.00 0.06 0.00 83 1008.6
20220705003545 58 219 0.0 2.0 0.00 0.06 0.00 82 1008.5
20220705002545 58 216 0.0 3.0 0.00 0.06 0.00 82 1008.6
20220705001544 58 213 1.0 3.0 0.00 0.06 0.00 82 1008.5
20220705000545 57 209 0.0 3.0 0.00 0.06 0.00 83 1008.6
20220704235545 57 220 0.0 2.0 0.00 0.06 0.00 83 1008.7
20220704234547 57 218 0.0 2.0 0.00 0.06 0.00 85 1008.6
20220704233546 56 0.0 1.0 0.00 0.06 0.00 88 1008.6
20220704232546 58 0.0 0.0 0.00 0.06 0.00 86 1008.5
20220704231546 58 0.0 0.0 0.00 0.06 0.00 82 1008.6
20220704230547 59 220 0.0 2.0 0.00 0.06 0.00 81 1008.6
20220704225548 58 208 0.0 1.0 0.00 0.06 0.00 82 1008.8
20220704224550 58 212 0.0 2.0 0.00 0.06 0.00 83 1008.9
20220704223548 58 219 0.0 1.0 0.00 0.06 0.00 84 1009.0
20220704222550 58 217 0.0 1.0 0.00 0.06 0.00 83 1009.0
20220704221523 58 217 0.0 2.0 0.00 0.06 0.00 84 1009.0
20220704220522 58 0.0 0.0 0.00 0.06 0.00 85 1009.0
20220704215550 58 214 0.0 1.0 0.00 0.06 0.06 85 1008.9
20220704214551 57 207 0.0 1.0 0.00 0.06 0.06 87 1008.9
20220704213551 57 0.0 0.0 0.00 0.06 0.06 88 1008.7
20220704212551 57 0.0 0.0 0.00 0.06 0.06 89 1008.7
20220704211551 57 0.0 0.0 0.00 0.06 0.06 89 1008.9
20220704210548 57 0.0 0.0 0.00 0.06 0.06 88 1008.8
20220704205521 57 206 0.0 1.0 0.00 0.06 0.06 89 1008.8
20220704204521 57 0.0 0.0 0.00 0.06 0.06 88 1008.8
20220704203521 58 0.0 0.0 0.00 0.06 0.06 86 1008.9
20220704202522 59 214 1.0 2.0 0.00 0.06 0.06 83 1008.9
20220704201523 60 207 2.0 6.0 0.00 0.06 0.06 82 1008.8
20220704200524 59 237 3.0 8.0 0.00 0.06 0.06 82 1008.9
20220704195524 59 196 0.0 2.0 0.00 0.06 0.06 87 1008.9
20220704194523 60 0.0 1.0 0.00 0.06 0.06 87 1008.9
20220704193524 61 0.0 2.0 0.00 0.06 0.06 84 1008.8
20220704192552 61 203 1.0 2.0 0.00 0.06 0.06 83 1008.7
20220704191552 62 211 1.0 3.0 0.00 0.06 0.06 82 1008.8
20220704190554 63 208 1.0 7.0 0.00 0.06 0.06 82 1008.7
20220704185553 62 217 1.0 3.0 0.00 0.06 0.06 84 1008.8
20220704184554 63 210 1.0 2.0 0.00 0.06 0.06 83 1008.5
20220704183554 63 202 0.0 2.0 0.00 0.06 0.06 82 1008.6
20220704182527 64 204 0.0 2.0 0.00 0.06 0.06 81 1008.6
20220704181527 65 212 2.0 3.0 0.01 0.06 0.06 78 1008.4
20220704180528 66 223 1.0 3.0 0.06 0.06 0.06 79 1008.5
20220704175529 66 212 0.0 1.0 0.06 0.06 0.06 80 1008.5
20220704174530 64 198 0.0 1.0 0.06 0.06 0.06 82 1008.5
20220704173529 63 219 1.0 2.0 0.06 0.06 0.06 85 1008.6
20220704172557 61 210 1.0 3.0 0.06 0.06 0.06 89 1008.4
20220704171558 64 263 5.0 13.0 0.05 0.05 0.05 82 1008.7
20220704170531 66 197 1.0 5.0 0.00 0.00 0.00 72 1008.5
20220704165530 66 199 0.0 1.0 0.00 0.00 0.00 74 1008.5
20220704164532 67 199 1.0 3.0 0.00 0.00 0.00 72 1008.5
20220704163533 66 210 2.0 6.0 0.00 0.00 0.00 73 1008.6